sensor_id;sensor_type;location;lat;lon;timestamp;pressure;altitude;pressure_sealevel;temperature;humidity
39613;BME280;25303;48.896;13.342;2022-08-14T00:01:37;92700.97;;;17.62;65.52
39613;BME280;25303;48.896;13.342;2022-08-14T00:04:20;92700.97;;;17.55;65.82
39613;BME280;25303;48.896;13.342;2022-08-14T00:07:22;92699.00;;;17.44;66.41
39613;BME280;25303;48.896;13.342;2022-08-14T00:10:08;92703.59;;;17.35;66.44
39613;BME280;25303;48.896;13.342;2022-08-14T00:13:12;92689.19;;;17.26;66.59
39613;BME280;25303;48.896;13.342;2022-08-14T00:15:58;92691.19;;;17.17;66.93
39613;BME280;25303;48.896;13.342;2022-08-14T00:18:41;92690.59;;;17.15;66.78
39613;BME280;25303;48.896;13.342;2022-08-14T00:21:44;92689.97;;;17.13;67.28
39613;BME280;25303;48.896;13.342;2022-08-14T00:24:27;92688.00;;;17.08;67.47
39613;BME280;25303;48.896;13.342;2022-08-14T00:27:11;92683.41;;;17.04;67.44
39613;BME280;25303;48.896;13.342;2022-08-14T00:29:57;92683.59;;;17.02;67.61
39613;BME280;25303;48.896;13.342;2022-08-14T00:32:42;92679.41;;;17.01;67.99
39613;BME280;25303;48.896;13.342;2022-08-14T00:35:37;92684.00;;;16.99;68.24
39613;BME280;25303;48.896;13.342;2022-08-14T00:38:40;92675.19;;;16.93;68.24
39613;BME280;25303;48.896;13.342;2022-08-14T00:41:29;92673.16;;;16.89;68.46
39613;BME280;25303;48.896;13.342;2022-08-14T00:44:14;92683.16;;;16.85;68.51
39613;BME280;25303;48.896;13.342;2022-08-14T00:47:14;92676.34;;;16.84;68.84
39613;BME280;25303;48.896;13.342;2022-08-14T00:49:59;92672.16;;;16.83;69.75
39613;BME280;25303;48.896;13.342;2022-08-14T00:52:44;92665.16;;;16.83;68.76
39613;BME280;25303;48.896;13.342;2022-08-14T00:55:34;92660.75;;;16.84;68.79
39613;BME280;25303;48.896;13.342;2022-08-14T00:58:19;92665.56;;;16.80;68.98
39613;BME280;25303;48.896;13.342;2022-08-14T01:01:15;92661.34;;;16.79;68.79
39613;BME280;25303;48.896;13.342;2022-08-14T01:04:01;92671.38;;;16.82;68.67
39613;BME280;25303;48.896;13.342;2022-08-14T01:06:48;92661.16;;;16.81;69.02
39613;BME280;25303;48.896;13.342;2022-08-14T01:09:36;92669.56;;;16.83;68.82
39613;BME280;25303;48.896;13.342;2022-08-14T01:12:21;92659.56;;;16.86;68.49
39613;BME280;25303;48.896;13.342;2022-08-14T01:15:10;92659.38;;;16.88;68.49
39613;BME280;25303;48.896;13.342;2022-08-14T01:17:55;92655.56;;;16.91;68.34
39613;BME280;25303;48.896;13.342;2022-08-14T01:20:54;92651.97;;;16.92;68.45
39613;BME280;25303;48.896;13.342;2022-08-14T01:23:51;92658.16;;;16.91;68.53
39613;BME280;25303;48.896;13.342;2022-08-14T01:26:37;92650.56;;;16.89;68.41
39613;BME280;25303;48.896;13.342;2022-08-14T01:29:20;92652.56;;;16.87;68.38
39613;BME280;25303;48.896;13.342;2022-08-14T01:32:23;92649.97;;;16.87;68.73
39613;BME280;25303;48.896;13.342;2022-08-14T01:35:10;92645.56;;;16.81;68.89
39613;BME280;25303;48.896;13.342;2022-08-14T01:38:02;92645.97;;;16.78;69.31
39613;BME280;25303;48.896;13.342;2022-08-14T01:40:51;92633.16;;;16.76;69.13
39613;BME280;25303;48.896;13.342;2022-08-14T01:43:43;92635.38;;;16.73;69.25
39613;BME280;25303;48.896;13.342;2022-08-14T01:46:39;92636.75;;;16.75;68.97
39613;BME280;25303;48.896;13.342;2022-08-14T01:49:24;92635.75;;;16.76;69.32
39613;BME280;25303;48.896;13.342;2022-08-14T01:52:15;92637.56;;;16.76;69.40
39613;BME280;25303;48.896;13.342;2022-08-14T01:55:19;92637.56;;;16.76;69.25
39613;BME280;25303;48.896;13.342;2022-08-14T01:58:04;92640.94;;;16.76;69.22
39613;BME280;25303;48.896;13.342;2022-08-14T02:01:01;92635.16;;;16.67;69.61
39613;BME280;25303;48.896;13.342;2022-08-14T02:03:49;92631.75;;;16.60;69.66
39613;BME280;25303;48.896;13.342;2022-08-14T02:06:37;92626.75;;;16.45;69.68
39613;BME280;25303;48.896;13.342;2022-08-14T02:09:22;92624.72;;;16.34;70.34
39613;BME280;25303;48.896;13.342;2022-08-14T02:12:06;92630.69;;;16.21;70.63
39613;BME280;25303;48.896;13.342;2022-08-14T02:15:02;92636.25;;;16.11;70.83
39613;BME280;25303;48.896;13.342;2022-08-14T02:17:45;92630.06;;;16.05;71.07
39613;BME280;25303;48.896;13.342;2022-08-14T02:20:30;92621.28;;;16.06;71.31
39613;BME280;25303;48.896;13.342;2022-08-14T02:23:16;92611.09;;;16.05;71.71
39613;BME280;25303;48.896;13.342;2022-08-14T02:26:16;92614.25;;;16.07;71.86
39613;BME280;25303;48.896;13.342;2022-08-14T02:29:12;92622.06;;;16.07;71.73
39613;BME280;25303;48.896;13.342;2022-08-14T02:31:58;92616.47;;;16.10;71.46
39613;BME280;25303;48.896;13.342;2022-08-14T02:34:42;92621.28;;;16.13;71.66
39613;BME280;25303;48.896;13.342;2022-08-14T02:37:26;92614.88;;;16.16;71.90
39613;BME280;25303;48.896;13.342;2022-08-14T02:40:30;92611.91;;;16.19;71.67
39613;BME280;25303;48.896;13.342;2022-08-14T02:43:16;92610.91;;;16.13;72.16
39613;BME280;25303;48.896;13.342;2022-08-14T02:46:05;92611.88;;;16.12;72.48
39613;BME280;25303;48.896;13.342;2022-08-14T02:48:54;92614.28;;;16.14;72.21
39613;BME280;25303;48.896;13.342;2022-08-14T02:51:46;92609.31;;;16.19;71.71
39613;BME280;25303;48.896;13.342;2022-08-14T02:54:31;92605.72;;;16.20;72.07
39613;BME280;25303;48.896;13.342;2022-08-14T02:57:15;92605.91;;;16.18;72.17
39613;BME280;25303;48.896;13.342;2022-08-14T03:00:19;92600.91;;;16.17;72.10
39613;BME280;25303;48.896;13.342;2022-08-14T03:03:03;92601.13;;;16.15;72.35
39613;BME280;25303;48.896;13.342;2022-08-14T03:05:51;92596.91;;;16.14;72.27
39613;BME280;25303;48.896;13.342;2022-08-14T03:08:37;92597.91;;;16.13;72.42
39613;BME280;25303;48.896;13.342;2022-08-14T03:11:26;92596.09;;;16.14;72.33
39613;BME280;25303;48.896;13.342;2022-08-14T03:14:16;92595.09;;;16.08;72.96
39613;BME280;25303;48.896;13.342;2022-08-14T03:17:00;92592.09;;;16.04;73.38
39613;BME280;25303;48.896;13.342;2022-08-14T03:19:43;92589.69;;;15.96;73.80
39613;BME280;25303;48.896;13.342;2022-08-14T03:22:33;92593.88;;;15.97;73.22
39613;BME280;25303;48.896;13.342;2022-08-14T03:25:19;92591.28;;;15.97;72.88
39613;BME280;25303;48.896;13.342;2022-08-14T03:28:05;92590.28;;;15.98;73.14
39613;BME280;25303;48.896;13.342;2022-08-14T03:30:54;92590.09;;;16.00;73.27
39613;BME280;25303;48.896;13.342;2022-08-14T03:33:41;92587.91;;;16.03;74.37
39613;BME280;25303;48.896;13.342;2022-08-14T03:36:24;92588.31;;;16.07;74.56
39613;BME280;25303;48.896;13.342;2022-08-14T03:39:29;92586.91;;;16.11;74.50
39613;BME280;25303;48.896;13.342;2022-08-14T03:42:12;92576.75;;;16.09;74.24
39613;BME280;25303;48.896;13.342;2022-08-14T03:45:00;92574.16;;;16.09;74.07
39613;BME280;25303;48.896;13.342;2022-08-14T03:48:08;92575.53;;;16.05;74.43
39613;BME280;25303;48.896;13.342;2022-08-14T03:51:11;92579.44;;;15.81;75.79
39613;BME280;25303;48.896;13.342;2022-08-14T03:53:57;92581.22;;;15.80;75.47
39613;BME280;25303;48.896;13.342;2022-08-14T03:56:41;92582.22;;;15.79;75.35
39613;BME280;25303;48.896;13.342;2022-08-14T03:59:31;92578.69;;;15.87;74.96
39613;BME280;25303;48.896;13.342;2022-08-14T04:02:16;92580.88;;;15.90;74.83
39613;BME280;25303;48.896;13.342;2022-08-14T04:05:18;92585.06;;;15.91;74.89
39613;BME280;25303;48.896;13.342;2022-08-14T04:08:04;92583.91;;;15.94;74.98
39613;BME280;25303;48.896;13.342;2022-08-14T04:11:08;92587.88;;;15.97;74.99
39613;BME280;25303;48.896;13.342;2022-08-14T04:13:57;92586.06;;;15.97;74.85
39613;BME280;25303;48.896;13.342;2022-08-14T04:16:41;92583.47;;;15.97;74.90
39613;BME280;25303;48.896;13.342;2022-08-14T04:19:29;92581.47;;;15.92;75.09
39613;BME280;25303;48.896;13.342;2022-08-14T04:22:17;92582.09;;;15.94;75.15
39613;BME280;25303;48.896;13.342;2022-08-14T04:25:03;92581.69;;;15.98;75.01
39613;BME280;25303;48.896;13.342;2022-08-14T04:27:47;92582.72;;;16.03;74.95
39613;BME280;25303;48.896;13.342;2022-08-14T04:30:45;92583.53;;;16.10;74.93
39613;BME280;25303;48.896;13.342;2022-08-14T04:33:29;92583.53;;;16.17;74.88
39613;BME280;25303;48.896;13.342;2022-08-14T04:36:13;92570.56;;;16.24;74.49
39613;BME280;25303;48.896;13.342;2022-08-14T04:38:58;92573.78;;;16.33;74.37
39613;BME280;25303;48.896;13.342;2022-08-14T04:41:58;92574.38;;;16.42;74.00
39613;BME280;25303;48.896;13.342;2022-08-14T04:44:59;92571.56;;;16.50;73.88
39613;BME280;25303;48.896;13.342;2022-08-14T04:47:43;92575.59;;;16.52;73.50
39613;BME280;25303;48.896;13.342;2022-08-14T04:50:49;92573.78;;;16.53;73.73
39613;BME280;25303;48.896;13.342;2022-08-14T04:53:36;92570.38;;;16.59;73.11
39613;BME280;25303;48.896;13.342;2022-08-14T04:56:25;92565.97;;;16.60;73.02
39613;BME280;25303;48.896;13.342;2022-08-14T04:59:15;92569.38;;;16.67;72.74
39613;BME280;25303;48.896;13.342;2022-08-14T05:01:58;92564.38;;;16.72;72.28
39613;BME280;25303;48.896;13.342;2022-08-14T05:04:44;92562.59;;;16.73;72.07
39613;BME280;25303;48.896;13.342;2022-08-14T05:07:39;92549.59;;;16.73;72.04
39613;BME280;25303;48.896;13.342;2022-08-14T05:10:47;92556.38;;;16.74;71.98
39613;BME280;25303;48.896;13.342;2022-08-14T05:13:33;92550.97;;;16.75;71.82
39613;BME280;25303;48.896;13.342;2022-08-14T05:16:37;92543.00;;;16.77;71.68
39613;BME280;25303;48.896;13.342;2022-08-14T05:19:22;92548.38;;;16.82;71.88
39613;BME280;25303;48.896;13.342;2022-08-14T05:22:11;92541.59;;;16.88;71.63
39613;BME280;25303;48.896;13.342;2022-08-14T05:24:59;92546.59;;;16.96;71.46
39613;BME280;25303;48.896;13.342;2022-08-14T05:27:44;92544.94;;;17.08;71.41
39613;BME280;25303;48.896;13.342;2022-08-14T05:30:27;92547.34;;;17.16;71.17
39613;BME280;25303;48.896;13.342;2022-08-14T05:33:11;92537.91;;;17.22;70.68
39613;BME280;25303;48.896;13.342;2022-08-14T05:35:57;92539.13;;;17.26;70.28
39613;BME280;25303;48.896;13.342;2022-08-14T05:38:45;92540.28;;;17.30;70.07
39613;BME280;25303;48.896;13.342;2022-08-14T05:41:28;92540.47;;;17.36;70.13
39613;BME280;25303;48.896;13.342;2022-08-14T05:44:33;92539.66;;;17.42;69.85
39613;BME280;25303;48.896;13.342;2022-08-14T05:47:16;92537.44;;;17.45;69.53
39613;BME280;25303;48.896;13.342;2022-08-14T05:50:00;92528.00;;;17.51;69.55
39613;BME280;25303;48.896;13.342;2022-08-14T05:52:43;92535.19;;;17.56;69.77
39613;BME280;25303;48.896;13.342;2022-08-14T05:55:28;92532.97;;;17.66;70.34
39613;BME280;25303;48.896;13.342;2022-08-14T05:58:12;92530.88;;;17.82;70.25
39613;BME280;25303;48.896;13.342;2022-08-14T06:00:57;92528.41;;;17.94;70.24
39613;BME280;25303;48.896;13.342;2022-08-14T06:03:40;92528.53;;;18.05;70.23
39613;BME280;25303;48.896;13.342;2022-08-14T06:06:24;92520.66;;;18.19;69.48
39613;BME280;25303;48.896;13.342;2022-08-14T06:09:07;92500.56;;;18.26;69.54
39613;BME280;25303;48.896;13.342;2022-08-14T06:11:52;92503.50;;;18.36;69.20
39613;BME280;25303;48.896;13.342;2022-08-14T06:14:38;92504.41;;;18.49;68.68
39613;BME280;25303;48.896;13.342;2022-08-14T06:17:23;92505.72;;;18.58;68.99
39613;BME280;25303;48.896;13.342;2022-08-14T06:20:07;92501.03;;;18.67;68.67
39613;BME280;25303;48.896;13.342;2022-08-14T06:22:51;92496.56;;;18.74;68.22
39613;BME280;25303;48.896;13.342;2022-08-14T06:25:34;92498.28;;;18.80;67.73
39613;BME280;25303;48.896;13.342;2022-08-14T06:28:19;92487.16;;;18.92;67.57
39613;BME280;25303;48.896;13.342;2022-08-14T06:31:08;92489.84;;;19.04;66.84
39613;BME280;25303;48.896;13.342;2022-08-14T06:33:52;92492.78;;;19.14;66.37
39613;BME280;25303;48.896;13.342;2022-08-14T06:36:55;92486.38;;;19.28;66.03
39613;BME280;25303;48.896;13.342;2022-08-14T06:39:38;92484.03;;;19.39;65.67
39613;BME280;25303;48.896;13.342;2022-08-14T06:42:25;92478.88;;;19.51;65.12
39613;BME280;25303;48.896;13.342;2022-08-14T06:45:15;92480.19;;;19.60;64.74
39613;BME280;25303;48.896;13.342;2022-08-14T06:47:59;92480.88;;;19.67;64.55
39613;BME280;25303;48.896;13.342;2022-08-14T06:50:43;92481.59;;;19.74;64.49
39613;BME280;25303;48.896;13.342;2022-08-14T06:53:27;92481.44;;;19.88;64.04
39613;BME280;25303;48.896;13.342;2022-08-14T06:56:12;92482.25;;;20.00;63.42
39613;BME280;25303;48.896;13.342;2022-08-14T06:58:55;92491.94;;;20.12;62.72
39613;BME280;25303;48.896;13.342;2022-08-14T07:01:39;92492.41;;;20.21;61.88
39613;BME280;25303;48.896;13.342;2022-08-14T07:04:40;92485.59;;;20.19;61.68
39613;BME280;25303;48.896;13.342;2022-08-14T07:07:40;92491.88;;;20.30;61.70
39613;BME280;25303;48.896;13.342;2022-08-14T07:10:23;92483.72;;;20.39;61.31
39613;BME280;25303;48.896;13.342;2022-08-14T07:13:06;92494.50;;;20.42;61.27
39613;BME280;25303;48.896;13.342;2022-08-14T07:15:53;92486.41;;;20.44;60.25
39613;BME280;25303;48.896;13.342;2022-08-14T07:18:38;92488.25;;;20.55;60.70
39613;BME280;25303;48.896;13.342;2022-08-14T07:21:23;92496.34;;;20.65;60.61
39613;BME280;25303;48.896;13.342;2022-08-14T07:24:06;92490.78;;;20.74;60.73
39613;BME280;25303;48.896;13.342;2022-08-14T07:27:03;92494.09;;;20.81;60.07
39613;BME280;25303;48.896;13.342;2022-08-14T07:29:50;92497.97;;;20.90;59.65
39613;BME280;25303;48.896;13.342;2022-08-14T07:32:33;92495.00;;;20.99;59.63
39613;BME280;25303;48.896;13.342;2022-08-14T07:35:18;92500.91;;;21.06;59.16
39613;BME280;25303;48.896;13.342;2022-08-14T07:38:04;92498.28;;;21.06;58.89
39613;BME280;25303;48.896;13.342;2022-08-14T07:40:50;92499.53;;;21.15;58.27
39613;BME280;25303;48.896;13.342;2022-08-14T07:43:34;92503.38;;;21.24;57.74
39613;BME280;25303;48.896;13.342;2022-08-14T07:46:19;92496.19;;;21.32;58.36
39613;BME280;25303;48.896;13.342;2022-08-14T07:49:10;92503.69;;;21.40;58.11
39613;BME280;25303;48.896;13.342;2022-08-14T07:52:00;92498.22;;;21.42;57.42
39613;BME280;25303;48.896;13.342;2022-08-14T07:54:44;92499.47;;;21.51;56.91
39613;BME280;25303;48.896;13.342;2022-08-14T07:57:28;92497.63;;;21.63;57.34
39613;BME280;25303;48.896;13.342;2022-08-14T08:00:13;92510.13;;;21.73;56.55
39613;BME280;25303;48.896;13.342;2022-08-14T08:03:13;92493.22;;;21.81;56.53
39613;BME280;25303;48.896;13.342;2022-08-14T08:05:56;92496.16;;;21.84;56.07
39613;BME280;25303;48.896;13.342;2022-08-14T08:08:42;92498.31;;;21.88;55.92
39613;BME280;25303;48.896;13.342;2022-08-14T08:11:40;92506.16;;;21.99;56.17
39613;BME280;25303;48.896;13.342;2022-08-14T08:14:24;92508.38;;;22.08;55.38
39613;BME280;25303;48.896;13.342;2022-08-14T08:17:09;92505.19;;;22.06;55.20
39613;BME280;25303;48.896;13.342;2022-08-14T08:19:54;92508.97;;;21.98;55.13
39613;BME280;25303;48.896;13.342;2022-08-14T08:22:38;92500.25;;;21.92;55.35
39613;BME280;25303;48.896;13.342;2022-08-14T08:25:32;92507.59;;;22.07;55.11
39613;BME280;25303;48.896;13.342;2022-08-14T08:28:22;92514.72;;;22.12;54.74
39613;BME280;25303;48.896;13.342;2022-08-14T08:31:07;92508.41;;;21.96;54.47
39613;BME280;25303;48.896;13.342;2022-08-14T08:33:52;92505.88;;;21.84;54.11
39613;BME280;25303;48.896;13.342;2022-08-14T08:36:39;92504.19;;;21.95;54.19
39613;BME280;25303;48.896;13.342;2022-08-14T08:39:27;92506.31;;;22.10;54.25
39613;BME280;25303;48.896;13.342;2022-08-14T08:42:31;92501.22;;;22.20;54.18
39613;BME280;25303;48.896;13.342;2022-08-14T08:45:25;92495.03;;;22.26;52.13
39613;BME280;25303;48.896;13.342;2022-08-14T08:48:09;92488.38;;;22.36;53.41
39613;BME280;25303;48.896;13.342;2022-08-14T08:51:02;92484.16;;;22.35;53.35
39613;BME280;25303;48.896;13.342;2022-08-14T08:53:55;92479.81;;;22.40;53.68
39613;BME280;25303;48.896;13.342;2022-08-14T08:56:40;92485.06;;;22.57;53.62
39613;BME280;25303;48.896;13.342;2022-08-14T08:59:28;92479.25;;;22.72;53.45
39613;BME280;25303;48.896;13.342;2022-08-14T09:02:15;92473.41;;;22.87;52.96
39613;BME280;25303;48.896;13.342;2022-08-14T09:05:01;92470.63;;;22.94;52.21
39613;BME280;25303;48.896;13.342;2022-08-14T09:07:45;92465.94;;;22.96;52.49
39613;BME280;25303;48.896;13.342;2022-08-14T09:10:29;92460.56;;;23.08;52.60
39613;BME280;25303;48.896;13.342;2022-08-14T09:13:14;92459.75;;;23.25;52.34
39613;BME280;25303;48.896;13.342;2022-08-14T09:15:59;92461.34;;;23.48;52.07
39613;BME280;25303;48.896;13.342;2022-08-14T09:19:00;92461.75;;;23.62;51.00
39613;BME280;25303;48.896;13.342;2022-08-14T09:21:44;92459.78;;;23.74;50.99
39613;BME280;25303;48.896;13.342;2022-08-14T09:24:28;92463.53;;;23.83;50.53
39613;BME280;25303;48.896;13.342;2022-08-14T09:27:24;92460.06;;;23.78;50.06
39613;BME280;25303;48.896;13.342;2022-08-14T09:30:09;92460.03;;;23.73;50.13
39613;BME280;25303;48.896;13.342;2022-08-14T09:33:28;92462.31;;;23.64;49.62
39613;BME280;25303;48.896;13.342;2022-08-14T09:36:29;92457.84;;;23.64;49.97
39613;BME280;25303;48.896;13.342;2022-08-14T09:39:25;92452.16;;;23.73;50.11
39613;BME280;25303;48.896;13.342;2022-08-14T09:42:34;92462.16;;;23.98;49.95
39613;BME280;25303;48.896;13.342;2022-08-14T09:45:34;92453.50;;;24.35;49.75
39613;BME280;25303;48.896;13.342;2022-08-14T09:48:23;92455.38;;;24.72;49.23
39613;BME280;25303;48.896;13.342;2022-08-14T09:51:21;92459.97;;;24.87;47.83
39613;BME280;25303;48.896;13.342;2022-08-14T09:54:09;92451.53;;;24.91;45.56
39613;BME280;25303;48.896;13.342;2022-08-14T09:57:05;92458.28;;;24.76;47.11
39613;BME280;25303;48.896;13.342;2022-08-14T09:59:51;92453.34;;;24.80;47.53
39613;BME280;25303;48.896;13.342;2022-08-14T10:02:34;92450.13;;;24.72;47.44
39613;BME280;25303;48.896;13.342;2022-08-14T10:05:29;92448.22;;;24.30;47.19
39613;BME280;25303;48.896;13.342;2022-08-14T10:08:19;92448.19;;;24.25;47.45
39613;BME280;25303;48.896;13.342;2022-08-14T10:11:12;92452.56;;;24.14;47.71
39613;BME280;25303;48.896;13.342;2022-08-14T10:14:01;92446.72;;;24.07;47.94
39613;BME280;25303;48.896;13.342;2022-08-14T10:16:55;92448.25;;;24.03;48.06
39613;BME280;25303;48.896;13.342;2022-08-14T10:19:46;92447.41;;;23.97;48.47
39613;BME280;25303;48.896;13.342;2022-08-14T10:22:31;92450.59;;;23.99;48.62
39613;BME280;25303;48.896;13.342;2022-08-14T10:25:39;92448.50;;;24.01;48.27
39613;BME280;25303;48.896;13.342;2022-08-14T10:28:23;92448.19;;;23.97;47.89
39613;BME280;25303;48.896;13.342;2022-08-14T10:31:28;92440.19;;;23.87;48.20
39613;BME280;25303;48.896;13.342;2022-08-14T10:34:31;92442.22;;;23.80;48.30
39613;BME280;25303;48.896;13.342;2022-08-14T10:37:18;92446.91;;;23.73;48.13
39613;BME280;25303;48.896;13.342;2022-08-14T10:40:12;92442.63;;;23.66;48.08
39613;BME280;25303;48.896;13.342;2022-08-14T10:43:18;92441.59;;;23.67;48.37
39613;BME280;25303;48.896;13.342;2022-08-14T10:46:11;92439.78;;;23.73;48.41
39613;BME280;25303;48.896;13.342;2022-08-14T10:49:17;92437.03;;;23.85;48.41
39613;BME280;25303;48.896;13.342;2022-08-14T10:52:05;92443.91;;;23.91;48.50
39613;BME280;25303;48.896;13.342;2022-08-14T10:54:50;92437.88;;;23.91;48.49
39613;BME280;25303;48.896;13.342;2022-08-14T10:57:47;92439.94;;;23.89;48.51
39613;BME280;25303;48.896;13.342;2022-08-14T11:00:32;92437.81;;;23.86;48.71
39613;BME280;25303;48.896;13.342;2022-08-14T11:03:16;92434.63;;;23.83;48.85
39613;BME280;25303;48.896;13.342;2022-08-14T11:06:17;92431.75;;;23.85;48.71
39613;BME280;25303;48.896;13.342;2022-08-14T11:09:10;92426.50;;;23.85;48.99
39613;BME280;25303;48.896;13.342;2022-08-14T11:11:58;92424.38;;;23.82;48.66
39613;BME280;25303;48.896;13.342;2022-08-14T11:15:04;92427.50;;;23.79;48.71
39613;BME280;25303;48.896;13.342;2022-08-14T11:17:49;92426.94;;;23.77;49.21
39613;BME280;25303;48.896;13.342;2022-08-14T11:20:33;92418.00;;;23.73;49.33
39613;BME280;25303;48.896;13.342;2022-08-14T11:23:19;92412.69;;;23.67;49.19
39613;BME280;25303;48.896;13.342;2022-08-14T11:26:04;92421.00;;;23.59;48.97
39613;BME280;25303;48.896;13.342;2022-08-14T11:28:49;92431.66;;;23.47;48.76
39613;BME280;25303;48.896;13.342;2022-08-14T11:31:35;92423.09;;;23.35;49.11
39613;BME280;25303;48.896;13.342;2022-08-14T11:34:20;92419.34;;;23.26;49.41
39613;BME280;25303;48.896;13.342;2022-08-14T11:37:14;92423.16;;;23.18;49.68
39613;BME280;25303;48.896;13.342;2022-08-14T11:40:14;92421.50;;;23.12;50.18
39613;BME280;25303;48.896;13.342;2022-08-14T11:43:10;92418.88;;;23.12;50.34
39613;BME280;25303;48.896;13.342;2022-08-14T11:45:55;92415.53;;;23.16;50.73
39613;BME280;25303;48.896;13.342;2022-08-14T11:48:47;92413.81;;;23.27;50.47
39613;BME280;25303;48.896;13.342;2022-08-14T11:51:51;92414.19;;;23.36;50.46
39613;BME280;25303;48.896;13.342;2022-08-14T11:54:35;92410.59;;;23.42;50.07
39613;BME280;25303;48.896;13.342;2022-08-14T11:57:19;92407.88;;;23.37;50.13
39613;BME280;25303;48.896;13.342;2022-08-14T12:00:04;92409.19;;;23.34;50.08
39613;BME280;25303;48.896;13.342;2022-08-14T12:02:50;92405.22;;;23.32;50.37
39613;BME280;25303;48.896;13.342;2022-08-14T12:05:46;92403.88;;;23.29;50.50
39613;BME280;25303;48.896;13.342;2022-08-14T12:08:32;92400.28;;;23.18;50.46
39613;BME280;25303;48.896;13.342;2022-08-14T12:11:19;92404.88;;;23.06;50.77
39613;BME280;25303;48.896;13.342;2022-08-14T12:14:06;92400.56;;;22.95;50.68
39613;BME280;25303;48.896;13.342;2022-08-14T12:17:10;92397.50;;;22.81;50.82
39613;BME280;25303;48.896;13.342;2022-08-14T12:19:55;92394.56;;;22.77;51.42
39613;BME280;25303;48.896;13.342;2022-08-14T12:22:42;92393.22;;;22.74;51.40
39613;BME280;25303;48.896;13.342;2022-08-14T12:25:33;92392.91;;;22.71;50.99
39613;BME280;25303;48.896;13.342;2022-08-14T12:28:17;92386.31;;;22.68;51.31
39613;BME280;25303;48.896;13.342;2022-08-14T12:31:16;92381.63;;;22.70;51.39
39613;BME280;25303;48.896;13.342;2022-08-14T12:34:03;92386.13;;;22.75;51.29
39613;BME280;25303;48.896;13.342;2022-08-14T12:37:00;92383.81;;;22.79;51.51
39613;BME280;25303;48.896;13.342;2022-08-14T12:39:48;92381.25;;;22.84;51.12
39613;BME280;25303;48.896;13.342;2022-08-14T12:42:33;92380.31;;;22.90;51.05
39613;BME280;25303;48.896;13.342;2022-08-14T12:45:29;92378.53;;;22.96;51.10
39613;BME280;25303;48.896;13.342;2022-08-14T12:48:14;92370.94;;;22.99;50.93
39613;BME280;25303;48.896;13.342;2022-08-14T12:51:15;92367.09;;;23.07;51.10
39613;BME280;25303;48.896;13.342;2022-08-14T12:54:12;92375.81;;;23.13;50.99
39613;BME280;25303;48.896;13.342;2022-08-14T12:57:11;92370.91;;;23.16;50.90
39613;BME280;25303;48.896;13.342;2022-08-14T13:00:09;92360.13;;;23.18;50.67
39613;BME280;25303;48.896;13.342;2022-08-14T13:03:04;92358.63;;;23.22;51.15
39613;BME280;25303;48.896;13.342;2022-08-14T13:05:47;92356.59;;;23.29;50.96
39613;BME280;25303;48.896;13.342;2022-08-14T13:08:31;92357.16;;;23.31;51.03
39613;BME280;25303;48.896;13.342;2022-08-14T13:11:15;92354.13;;;23.45;50.87
39613;BME280;25303;48.896;13.342;2022-08-14T13:14:02;92352.16;;;23.57;50.78
39613;BME280;25303;48.896;13.342;2022-08-14T13:16:45;92351.19;;;23.69;50.40
39613;BME280;25303;48.896;13.342;2022-08-14T13:19:31;92338.41;;;23.77;49.94
39613;BME280;25303;48.896;13.342;2022-08-14T13:22:15;92335.81;;;23.82;50.02
39613;BME280;25303;48.896;13.342;2022-08-14T13:25:15;92342.00;;;23.99;50.17
39613;BME280;25303;48.896;13.342;2022-08-14T13:27:58;92336.88;;;24.19;49.68
39613;BME280;25303;48.896;13.342;2022-08-14T13:30:44;92330.13;;;24.34;49.68
39613;BME280;25303;48.896;13.342;2022-08-14T13:33:28;92328.81;;;24.79;49.08
39613;BME280;25303;48.896;13.342;2022-08-14T13:36:13;92322.13;;;25.40;48.18
39613;BME280;25303;48.896;13.342;2022-08-14T13:39:06;92313.50;;;25.97;47.44
39613;BME280;25303;48.896;13.342;2022-08-14T13:41:53;92321.91;;;26.45;46.11
39613;BME280;25303;48.896;13.342;2022-08-14T13:44:41;92308.09;;;26.74;45.37
39613;BME280;25303;48.896;13.342;2022-08-14T13:47:29;92307.53;;;26.82;44.89
39613;BME280;25303;48.896;13.342;2022-08-14T13:50:14;92299.41;;;26.68;44.58
39613;BME280;25303;48.896;13.342;2022-08-14T13:53:01;92291.81;;;26.41;43.72
39613;BME280;25303;48.896;13.342;2022-08-14T13:55:46;92291.88;;;26.10;44.82
39613;BME280;25303;48.896;13.342;2022-08-14T13:58:33;92286.59;;;25.94;44.91
39613;BME280;25303;48.896;13.342;2022-08-14T14:01:20;92294.00;;;25.87;44.77
39613;BME280;25303;48.896;13.342;2022-08-14T14:04:05;92286.09;;;25.77;44.98
39613;BME280;25303;48.896;13.342;2022-08-14T14:07:00;92281.09;;;25.70;45.38
39613;BME280;25303;48.896;13.342;2022-08-14T14:09:46;92281.84;;;25.66;45.09
39613;BME280;25303;48.896;13.342;2022-08-14T14:12:34;92273.44;;;25.63;45.45
39613;BME280;25303;48.896;13.342;2022-08-14T14:15:37;92282.66;;;25.66;45.13
39613;BME280;25303;48.896;13.342;2022-08-14T14:18:39;92275.81;;;25.65;45.11
39613;BME280;25303;48.896;13.342;2022-08-14T14:21:24;92274.75;;;25.61;45.12
39613;BME280;25303;48.896;13.342;2022-08-14T14:24:09;92275.78;;;25.60;44.84
39613;BME280;25303;48.896;13.342;2022-08-14T14:27:00;92267.09;;;25.49;44.81
39613;BME280;25303;48.896;13.342;2022-08-14T14:30:04;92266.56;;;25.42;45.27
39613;BME280;25303;48.896;13.342;2022-08-14T14:33:10;92265.25;;;25.44;45.39
39613;BME280;25303;48.896;13.342;2022-08-14T14:36:17;92263.91;;;25.37;44.65
39613;BME280;25303;48.896;13.342;2022-08-14T14:39:06;92262.06;;;25.22;44.69
39613;BME280;25303;48.896;13.342;2022-08-14T14:41:51;92257.81;;;25.05;44.93
39613;BME280;25303;48.896;13.342;2022-08-14T14:44:38;92259.38;;;25.01;45.37
39613;BME280;25303;48.896;13.342;2022-08-14T14:47:24;92259.41;;;25.06;45.75